La Grande, OR (97850)

12:59 PM PDT on August 24, 2016 (GMT -0700)
La Grande | | Change Station

Elev 2802 ft 45.34 °N, 118.11 °W | Updated 4 minutes ago

Clear
Clear
84.0 °F
Feels Like 82 °F
N
5.3
Wind Variable Wind from ENE

Today
High -- | Low -- °F
--% Chance of Precip.
Yesterday
High -- | Low -- °F
Precip. -- in
Pressure 30.18 in
Visibility 10.0 miles
Clouds Clear
Heat Index 82 °F
Dew Point 43 °F
Humidity 24%
Rainfall 0.00 in
Snow Depth Not available.
6:05 AM 7:43 PM
Waning Gibbous, 54% visible
METAR KLGD 241955Z AUTO 36009KT 300V030 10SM CLR 26/02 A3018 RMK AO1
Pressure 30.18 in
Visibility 10.0 miles
Clouds Clear
Heat Index 82 °F
Dew Point 43 °F
Humidity 24%
Rainfall 0.00 in
Snow Depth Not available.
6:05 AM 7:43 PM
Waning Gibbous, 54% visible
METAR KLGD 241955Z AUTO 36009KT 300V030 10SM CLR 26/02 A3018 RMK AO1

10-Day Weather Forecast

Almanac

Astronomy

Aug. 24, 2016 Rise Set
Actual Time
Civil Twilight
Nautical Twilight
Astronomical Twilight
Moon
Length of Visible Light
Length of Day
Tomorrow will be .
, % of the Moon is Illuminated

Today's Extremes

State Highs State Lows

Community

WunderPhotos

Upload Photos

1,934,690 photos uploaded!

WunderBlog® & News

Nearby

Air Quality

  Air Quality AQ Index Pollutant
Not available.

Snow Depth

Station Depth Elevation

Earthquake Activity

City Distance Mag. Time & Date
Minimum magnitude displayed is 2.5.

Coastal Water Temperatures

Place Temperature

Stations

Nearby Weather Stations

Station Location Temp. Windchill Dew Point Humidity Wind Precip. Elev Updated Type
                   

Watches & Warnings

There are currently no watches in effect.